Time;durP1;ratioP1;P1;durP2;ratioP2;P2;SDS_P1;SDS_P2;PMS_P1;PMS_P2;Temp;Humidity;BMP_temperature;BMP_pressure;BME280_temperature;BME280_humidity;BME280_pressure;Samples;Min_cycle;Max_cycle;Signal;HPM_P1;HPM_P2
2022/12/30 00:00:49;;;;;;;0.08;0.08;;;;;;;9.90;78.29;98400.16;7364970;19;20086;-61
2022/12/30 00:03:14;;;;;;;0.08;0.08;;;;;;;9.73;78.05;98340.31;7363500;19;20032;-61
2022/12/30 00:05:40;;;;;;;0.00;0.00;;;;;;;10.05;77.67;98404.50;7358464;19;20375;-60
2022/12/30 00:08:45;;;;;;;0.00;0.00;;;;;;;10.11;77.84;98388.50;7361329;19;20419;-61
2022/12/30 00:10:51;;;;;;;0.05;0.05;;;;;;;10.19;77.56;98359.38;7365454;19;20875;-61
2022/12/30 00:35:16;;;;;;;0.00;0.00;;;;;;;10.63;76.42;98322.81;7364401;19;20023;-61
2022/12/30 00:37:41;;;;;;;0.10;0.10;;;;;;;10.65;76.47;98310.53;7365397;19;20733;-61
2022/12/30 00:40:08;;;;;;;0.03;0.03;;;;;;;10.71;76.47;98298.03;7365851;19;20010;-61
2022/12/30 00:45:18;;;;;;;0.00;0.00;;;;;;;10.77;76.66;98292.44;7362739;19;20013;-61
2022/12/30 00:47:44;;;;;;;0.10;0.10;;;;;;;10.74;76.29;98274.31;7364805;19;20105;-61
2022/12/30 00:58:22;;;;;;;0.08;0.08;;;;;;;10.87;76.20;98270.03;7363114;19;20035;-60
2022/12/30 01:00:47;;;;;;;0.00;0.00;;;;;;;10.86;76.60;98250.09;7364563;19;21996;-61
2022/12/30 01:03:13;;;;;;;0.10;0.10;;;;;;;10.86;76.26;98231.81;7362889;19;20018;-61
2022/12/30 01:05:39;;;;;;;0.10;0.10;;;;;;;10.87;76.61;98226.47;7365303;19;20007;-61
2022/12/30 01:08:05;;;;;;;0.10;0.10;;;;;;;10.88;76.28;98224.72;7357528;19;20104;-60
2022/12/30 01:10:30;;;;;;;0.10;0.10;;;;;;;10.88;76.40;98227.31;7365762;19;21369;-61
2022/12/30 01:12:56;;;;;;;0.00;0.00;;;;;;;10.90;76.60;98210.63;7362947;19;20095;-61
2022/12/30 01:15:21;;;;;;;0.00;0.00;;;;;;;10.91;76.18;98211.47;7361678;19;20383;-61
2022/12/30 01:17:47;;;;;;;0.10;0.10;;;;;;;10.97;76.74;98200.63;7358685;19;20010;-61
2022/12/30 01:20:12;;;;;;;0.05;0.05;;;;;;;10.98;76.45;98198.84;7364076;19;20048;-61
2022/12/30 01:22:37;;;;;;;0.10;0.10;;;;;;;11.03;76.92;98192.38;7363481;19;20041;-61
2022/12/30 01:25:03;;;;;;;0.10;0.10;;;;;;;11.06;76.43;98178.31;7364843;19;20013;-61
2022/12/30 01:27:30;;;;;;;0.10;0.10;;;;;;;11.06;76.33;98173.09;7364796;19;20006;-60
2022/12/30 01:29:56;;;;;;;0.00;0.00;;;;;;;11.09;76.37;98168.47;7362049;19;20385;-60
2022/12/30 01:32:22;;;;;;;0.10;0.10;;;;;;;11.08;76.65;98166.81;7366839;19;20010;-60
2022/12/30 01:34:51;;;;;;;0.00;0.00;;;;;;;11.10;76.44;98164.97;7361464;19;20076;-61
2022/12/30 01:37:17;;;;;;;0.10;0.10;;;;;;;11.12;76.57;98178.75;7365898;19;20007;-60
2022/12/30 01:39:42;;;;;;;0.00;0.00;;;;;;;11.13;76.50;98140.41;7362389;19;20607;-60
2022/12/30 01:42:23;;;;;;;0.10;0.10;;;;;;;11.15;76.43;98120.22;7363318;19;20013;-61
2022/12/30 01:44:49;;;;;;;0.10;0.10;;;;;;;11.10;76.57;98123.16;7362443;19;20042;-61
2022/12/30 01:47:33;;;;;;;0.10;0.10;;;;;;;11.14;76.57;98135.06;7362734;19;20458;-61
2022/12/30 01:50:03;;;;;;;0.00;0.00;;;;;;;11.14;76.56;98149.91;7360479;19;20133;-61
2022/12/30 01:52:28;;;;;;;0.00;0.00;;;;;;;11.13;76.93;98109.88;7364022;19;20070;-60
2022/12/30 01:55:00;;;;;;;0.08;0.08;;;;;;;11.09;76.63;98104.97;7362321;19;20085;-61
2022/12/30 01:57:25;;;;;;;0.10;0.10;;;;;;;11.16;76.90;98101.88;7360915;19;20051;-61
2022/12/30 01:59:51;;;;;;;0.10;0.10;;;;;;;11.20;76.94;98101.63;7362571;19;20010;-61
2022/12/30 02:02:17;;;;;;;0.00;0.00;;;;;;;11.24;76.62;98095.28;7362933;19;20608;-61
2022/12/30 02:04:42;;;;;;;0.00;0.00;;;;;;;11.25;76.95;98089.09;7363895;19;20123;-60
2022/12/30 02:07:18;;;;;;;0.00;0.00;;;;;;;11.31;77.21;98096.56;7359160;19;20070;-61
2022/12/30 02:09:46;;;;;;;0.00;0.00;;;;;;;11.33;76.72;98081.59;7362570;19;20014;-61
2022/12/30 02:12:11;;;;;;;;;;;;;;;11.41;76.92;98074.94;7362632;19;20742;-61
2022/12/30 02:14:39;;;;;;;0.00;0.00;;;;;;;11.36;76.64;98045.66;7362545;19;19923;-61
2022/12/30 02:17:40;;;;;;;0.10;0.10;;;;;;;11.49;76.81;98056.09;7357285;19;20007;-61
2022/12/30 02:20:11;;;;;;;0.03;0.03;;;;;;;11.51;76.22;98064.69;7258607;19;2004114;-61
2022/12/30 02:22:46;;;;;;;0.10;0.10;;;;;;;11.52;76.23;98045.44;7361876;19;20041;-60
2022/12/30 02:25:20;;;;;;;0.10;0.10;;;;;;;11.56;76.76;98041.69;7362217;19;20196;-61
2022/12/30 02:28:27;;;;;;;0.10;0.10;;;;;;;11.61;76.57;98034.34;7360596;19;20046;-61
2022/12/30 02:31:26;;;;;;;0.00;0.00;;;;;;;11.66;76.43;98053.16;7256349;19;2004300;-61
2022/12/30 02:34:08;;;;;;;0.03;0.03;;;;;;;11.68;76.49;98025.13;7260753;19;2004490;-61
2022/12/30 02:36:52;;;;;;;0.00;0.00;;;;;;;11.69;76.42;98016.34;7363861;19;20007;-61
2022/12/30 02:39:33;;;;;;;0.00;0.00;;;;;;;11.74;76.40;97999.50;7362939;19;20006;-61
2022/12/30 02:45:06;;;;;;;0.10;0.10;;;;;;;11.76;76.31;98026.38;7261014;19;2004323;-61
2022/12/30 02:47:37;;;;;;;0.00;0.00;;;;;;;11.76;76.27;98015.91;7357899;19;20834;-61
2022/12/30 02:52:57;;;;;;;0.10;0.10;;;;;;;11.82;76.49;98023.38;7260431;19;2004452;-61
2022/12/30 02:55:23;;;;;;;0.05;0.05;;;;;;;11.85;76.45;98012.69;7361609;19;20021;-61
2022/12/30 02:57:48;;;;;;;0.10;0.10;;;;;;;11.84;76.18;97990.09;7349742;19;20010;-61
2022/12/30 03:06:26;;;;;;;0.00;0.00;;;;;;;11.98;76.63;97981.28;7258438;19;2004476;-61
2022/12/30 03:09:06;;;;;;;0.00;0.00;;;;;;;12.02;76.27;97939.09;7358699;19;20021;-61
2022/12/30 03:11:51;;;;;;;0.10;0.10;;;;;;;12.03;76.19;97935.53;7359917;19;20014;-61
2022/12/30 03:14:28;;;;;;;0.00;0.00;;;;;;;12.02;75.87;97922.56;7358869;19;20689;-61
2022/12/30 03:16:58;;;;;;;0.00;0.00;;;;;;;12.06;76.05;97940.53;7359994;19;20010;-61
2022/12/30 03:19:28;;;;;;;0.03;0.03;;;;;;;12.08;75.90;97919.50;7359046;19;20714;-61
2022/12/30 03:21:54;;;;;;;0.10;0.10;;;;;;;12.07;75.96;97902.97;7360677;19;20010;-60
2022/12/30 03:27:14;;;;;;;0.10;0.10;;;;;;;12.12;75.89;97903.47;7257075;19;2004575;-61
2022/12/30 03:29:51;;;;;;;0.10;0.10;;;;;;;12.12;75.98;97898.25;7358569;19;20185;-61
2022/12/30 03:32:18;;;;;;;0.00;0.00;;;;;;;12.12;75.70;97893.00;7359379;19;20013;-61
2022/12/30 03:34:45;;;;;;;0.10;0.10;;;;;;;12.13;76.08;97868.50;7356844;19;20010;-61
2022/12/30 03:37:20;;;;;;;0.00;0.00;;;;;;;12.17;76.39;97875.19;7358445;19;20014;-61
2022/12/30 03:39:53;;;;;;;0.00;0.00;;;;;;;12.20;76.32;97872.31;7360394;19;20419;-61
2022/12/30 03:42:20;;;;;;;0.00;0.00;;;;;;;12.09;76.14;97838.28;7359711;19;20445;-61
2022/12/30 03:44:47;;;;;;;0.10;0.10;;;;;;;12.22;76.26;97863.56;7357703;19;20364;-61
2022/12/30 03:47:18;;;;;;;0.10;0.10;;;;;;;12.24;76.12;97843.34;7357603;19;20010;-61
2022/12/30 03:49:43;;;;;;;0.10;0.10;;;;;;;12.23;75.97;97846.91;7359001;19;20021;-61
2022/12/30 03:52:14;;;;;;;0.05;0.05;;;;;;;12.27;76.50;97827.41;7358999;19;21409;-61
2022/12/30 03:54:40;;;;;;;0.03;0.03;;;;;;;12.20;75.83;97821.78;7359707;19;20046;-61
2022/12/30 03:57:06;;;;;;;0.10;0.10;;;;;;;12.32;75.92;97827.91;7357280;19;20047;-61
2022/12/30 03:59:32;;;;;;;0.10;0.10;;;;;;;12.22;76.01;97804.22;7356423;19;20006;-61
2022/12/30 04:01:58;;;;;;;0.10;0.10;;;;;;;12.34;75.96;97815.53;7354422;19;20436;-61
2022/12/30 04:04:24;;;;;;;0.10;0.10;;;;;;;12.34;75.96;97779.72;7340815;19;20014;-61
2022/12/30 04:06:49;;;;;;;0.10;0.10;;;;;;;12.30;75.78;97778.28;7357686;19;20171;-61
2022/12/30 04:09:14;;;;;;;0.00;0.00;;;;;;;12.46;75.81;97825.03;7354811;19;20014;-61
2022/12/30 04:11:40;;;;;;;0.10;0.10;;;;;;;12.46;75.87;97801.50;7360139;19;20006;-61
2022/12/30 04:14:05;;;;;;;0.00;0.00;;;;;;;12.48;75.26;97804.00;7357634;19;20027;-61
2022/12/30 04:16:31;;;;;;;0.10;0.10;;;;;;;12.51;75.66;97815.06;7356646;19;20025;-61
2022/12/30 04:18:56;;;;;;;0.10;0.10;;;;;;;12.57;75.48;97822.47;7351149;19;20018;-61
2022/12/30 04:21:21;;;;;;;0.08;0.08;;;;;;;12.58;74.95;97799.72;7356596;19;20026;-61
2022/12/30 04:23:47;;;;;;;0.10;0.10;;;;;;;12.57;75.36;97780.59;7364375;19;20010;-61
2022/12/30 04:26:13;;;;;;;0.00;0.00;;;;;;;12.59;75.12;97790.94;7362650;19;20002;-61
2022/12/30 04:28:39;;;;;;;0.00;0.00;;;;;;;12.57;75.20;97779.72;7365817;19;20065;-61
2022/12/30 04:31:04;;;;;;;0.05;0.05;;;;;;;12.55;74.93;97769.38;7365843;19;20705;-61
2022/12/30 04:33:30;;;;;;;0.10;0.10;;;;;;;12.55;75.22;97777.22;7364598;19;20006;-61
2022/12/30 04:35:56;;;;;;;0.10;0.10;;;;;;;12.56;75.15;97776.28;7365792;19;20014;-61
2022/12/30 04:38:21;;;;;;;0.10;0.10;;;;;;;12.55;75.16;97755.47;7362858;19;20006;-61
2022/12/30 04:40:46;;;;;;;0.10;0.10;;;;;;;12.52;75.61;97787.97;7366520;19;20010;-61
2022/12/30 04:43:12;;;;;;;0.10;0.10;;;;;;;12.44;75.34;97751.91;7362280;19;20034;-61
2022/12/30 04:45:37;;;;;;;0.10;0.10;;;;;;;12.52;75.63;97761.78;7362371;19;20019;-61
2022/12/30 04:48:03;;;;;;;0.10;0.10;;;;;;;12.43;75.35;97712.75;7364124;19;20021;-61
2022/12/30 04:50:28;;;;;;;0.00;0.00;;;;;;;12.54;75.22;97757.25;7365434;19;20094;-61
2022/12/30 04:52:54;;;;;;;0.00;0.00;;;;;;;12.55;74.87;97743.19;7364058;19;20014;-61
2022/12/30 04:55:19;;;;;;;0.10;0.10;;;;;;;12.59;74.61;97726.31;7365763;19;20021;-61
2022/12/30 04:57:45;;;;;;;0.10;0.10;;;;;;;12.60;74.55;97708.81;7362511;19;20102;-61
2022/12/30 05:00:11;;;;;;;0.00;0.00;;;;;;;12.61;74.72;97740.09;7365662;19;20019;-61
2022/12/30 05:02:37;;;;;;;0.00;0.00;;;;;;;12.60;75.04;97725.34;7364079;19;20051;-61
2022/12/30 05:05:03;;;;;;;0.00;0.00;;;;;;;12.62;74.48;97739.16;7366526;19;20621;-61
2022/12/30 05:07:29;;;;;;;0.10;0.10;;;;;;;12.60;74.65;97788.19;7363521;19;20698;-61
2022/12/30 05:09:54;;;;;;;0.10;0.10;;;;;;;12.58;75.03;97714.19;7366134;19;20014;-61
2022/12/30 05:12:20;;;;;;;0.00;0.00;;;;;;;12.56;74.96;97718.69;7364954;19;20105;-61
2022/12/30 05:14:45;;;;;;;0.10;0.10;;;;;;;12.48;74.61;97696.72;7362822;19;20103;-61
2022/12/30 05:17:11;;;;;;;0.10;0.10;;;;;;;12.52;74.88;97717.28;7368323;19;20018;-60
2022/12/30 05:19:36;;;;;;;0.10;0.10;;;;;;;12.47;74.73;97708.97;7357542;19;20044;-61
2022/12/30 05:22:02;;;;;;;0.03;0.03;;;;;;;12.45;75.28;97731.78;7364813;19;21232;-61
2022/12/30 05:27:11;;;;;;;0.00;0.00;;;;;;;12.38;75.42;97712.28;7364312;19;20760;-61
2022/12/30 05:29:36;;;;;;;0.10;0.10;;;;;;;12.33;75.28;97696.94;7363538;19;20142;-60
2022/12/30 05:32:01;;;;;;;0.10;0.10;;;;;;;12.29;75.48;97692.91;7361062;19;20030;-60
2022/12/30 05:34:27;;;;;;;0.10;0.10;;;;;;;12.27;75.46;97686.97;7363654;19;20358;-61
2022/12/30 05:36:52;;;;;;;0.00;0.00;;;;;;;12.24;75.49;97683.75;7362382;19;20013;-60
2022/12/30 05:39:18;;;;;;;0.08;0.08;;;;;;;12.22;75.80;97693.50;7365036;19;20091;-61
2022/12/30 05:41:43;;;;;;;0.05;0.05;;;;;;;12.19;75.83;97684.94;7360050;19;20323;-61
2022/12/30 05:44:08;;;;;;;0.00;0.00;;;;;;;12.16;75.89;97677.31;7364727;19;20003;-61
2022/12/30 05:46:34;;;;;;;0.00;0.00;;;;;;;12.14;76.13;97673.97;7361632;19;20023;-61
2022/12/30 05:48:59;;;;;;;0.10;0.10;;;;;;;12.14;76.21;97676.59;7363828;19;20007;-61
2022/12/30 05:51:25;;;;;;;0.00;0.00;;;;;;;12.14;76.00;97675.78;7362241;19;20003;-60
2022/12/30 05:53:50;;;;;;;0.00;0.00;;;;;;;12.09;76.30;97673.50;7361784;19;20819;-60
2022/12/30 05:56:15;;;;;;;0.10;0.10;;;;;;;12.07;76.33;97659.72;7361550;19;20007;-60
2022/12/30 05:58:41;;;;;;;0.05;0.05;;;;;;;11.97;76.04;97644.88;7362060;19;20903;-60
2022/12/30 06:01:07;;;;;;;0.10;0.10;;;;;;;12.03;76.53;97658.28;7364110;19;20022;-60
2022/12/30 06:03:32;;;;;;;0.10;0.10;;;;;;;12.00;76.72;97655.91;7362794;19;20700;-61
2022/12/30 06:06:00;;;;;;;0.10;0.10;;;;;;;11.99;76.69;97651.63;7365700;19;20022;-60
2022/12/30 06:08:26;;;;;;;0.10;0.10;;;;;;;11.98;76.90;97643.91;7363037;19;20015;-61
2022/12/30 06:10:52;;;;;;;0.08;0.08;;;;;;;11.98;76.59;97639.50;7364566;19;20030;-59
2022/12/30 06:13:17;;;;;;;0.10;0.10;;;;;;;11.95;76.65;97634.50;7362518;19;20027;-61
2022/12/30 06:15:43;;;;;;;0.05;0.05;;;;;;;11.95;77.22;97639.75;7364312;19;20030;-61
2022/12/30 06:18:08;;;;;;;0.10;0.10;;;;;;;11.94;76.83;97627.63;7361146;19;20029;-60
2022/12/30 06:20:34;;;;;;;0.10;0.10;;;;;;;11.96;77.26;97630.94;7364078;19;20458;-61
2022/12/30 06:23:00;;;;;;;0.05;0.05;;;;;;;11.97;76.99;97622.16;7360810;19;20135;-60
2022/12/30 06:25:25;;;;;;;0.10;0.10;;;;;;;11.98;77.19;97615.16;7363225;19;20520;-60
2022/12/30 06:27:51;;;;;;;0.10;0.10;;;;;;;12.00;76.89;97605.38;7363003;19;20601;-61
2022/12/30 06:30:16;;;;;;;0.10;0.10;;;;;;;11.93;76.84;97584.13;7362210;19;20028;-60
2022/12/30 06:32:42;;;;;;;0.05;0.05;;;;;;;12.02;76.66;97599.09;7360483;19;20011;-60
2022/12/30 06:35:08;;;;;;;0.10;0.10;;;;;;;12.02;77.09;97593.03;7360444;19;20097;-60
2022/12/30 06:37:34;;;;;;;0.00;0.00;;;;;;;12.01;77.07;97584.34;7362498;19;20077;-60
2022/12/30 06:39:59;;;;;;;0.00;0.00;;;;;;;11.99;76.97;97583.63;7364067;19;21439;-60
2022/12/30 06:42:25;;;;;;;0.00;0.00;;;;;;;11.98;76.65;97571.53;7357789;19;20030;-60
2022/12/30 06:44:50;;;;;;;0.00;0.00;;;;;;;11.97;76.63;97575.09;7360256;19;20376;-61
2022/12/30 06:47:16;;;;;;;0.10;0.10;;;;;;;11.97;76.73;97569.88;7358155;19;20034;-60
2022/12/30 06:49:41;;;;;;;0.00;0.00;;;;;;;11.94;77.09;97567.47;7360993;19;20014;-60
2022/12/30 06:52:06;;;;;;;0.10;0.10;;;;;;;11.93;76.80;97555.34;7361711;19;20014;-60
2022/12/30 06:54:32;;;;;;;0.00;0.00;;;;;;;11.94;76.93;97568.31;7359464;19;20015;-60
2022/12/30 06:56:57;;;;;;;0.10;0.10;;;;;;;11.94;76.83;97547.38;7362093;19;20010;-61
2022/12/30 06:59:23;;;;;;;0.10;0.10;;;;;;;11.94;76.76;97538.72;7352851;19;20456;-60
2022/12/30 07:01:48;;;;;;;0.10;0.10;;;;;;;11.96;76.87;97542.03;7357991;19;20025;-61
2022/12/30 07:04:13;;;;;;;0.10;0.10;;;;;;;11.95;76.77;97529.91;7361218;19;20018;-60
2022/12/30 07:06:39;;;;;;;0.00;0.00;;;;;;;11.98;77.14;97529.69;7360530;19;20011;-60
2022/12/30 07:09:04;;;;;;;0.00;0.00;;;;;;;11.98;76.84;97534.91;7361703;19;20002;-60
2022/12/30 07:11:30;;;;;;;0.10;0.10;;;;;;;12.00;76.94;97538.22;7357256;19;20245;-60
2022/12/30 07:13:55;;;;;;;0.05;0.05;;;;;;;12.04;76.62;97518.72;7361069;19;20014;-61
2022/12/30 07:16:20;;;;;;;0.05;0.05;;;;;;;12.06;76.68;97522.03;7358781;19;20026;-60
2022/12/30 07:18:46;;;;;;;0.10;0.10;;;;;;;12.07;76.78;97515.88;7361155;19;20011;-61
2022/12/30 07:21:11;;;;;;;0.00;0.00;;;;;;;12.09;76.78;97516.56;7354760;19;20022;-60
2022/12/30 07:23:36;;;;;;;0.10;0.10;;;;;;;12.09;76.52;97511.34;7359336;19;20014;-61
2022/12/30 07:26:02;;;;;;;0.10;0.10;;;;;;;12.12;76.42;97505.88;7359960;19;20026;-60
2022/12/30 07:28:27;;;;;;;0.10;0.10;;;;;;;12.13;76.41;97497.06;7357242;19;20025;-61
2022/12/30 07:30:53;;;;;;;0.10;0.10;;;;;;;12.13;76.78;97491.84;7359769;19;20558;-61
2022/12/30 07:33:18;;;;;;;0.08;0.08;;;;;;;12.14;76.66;97498.72;7356824;19;20467;-61
2022/12/30 07:35:44;;;;;;;0.08;0.08;;;;;;;12.13;76.69;97486.63;7359480;19;20010;-61
2022/12/30 07:38:09;;;;;;;0.10;0.10;;;;;;;12.15;76.71;97479.47;7355498;19;20100;-61
2022/12/30 07:40:36;;;;;;;0.00;0.00;;;;;;;12.16;76.76;97477.66;7361321;19;20007;-61
2022/12/30 07:43:03;;;;;;;0.10;0.10;;;;;;;12.14;76.78;97467.34;7358093;19;20106;-61
2022/12/30 07:45:28;;;;;;;0.10;0.10;;;;;;;12.16;76.74;97462.81;7358884;19;20078;-61
2022/12/30 07:47:57;;;;;;;0.10;0.10;;;;;;;12.15;76.37;97458.53;7359202;19;20074;-60
2022/12/30 07:50:22;;;;;;;0.10;0.10;;;;;;;12.13;76.32;97468.31;7356722;19;20082;-61
2022/12/30 07:52:47;;;;;;;0.10;0.10;;;;;;;12.02;76.79;97446.59;7360884;19;20007;-60
2022/12/30 07:55:13;;;;;;;0.00;0.00;;;;;;;12.12;76.89;97458.81;7358390;19;20020;-60
2022/12/30 07:57:38;;;;;;;0.10;0.10;;;;;;;12.12;76.81;97450.97;7365920;19;20010;-60
2022/12/30 08:00:04;;;;;;;0.10;0.10;;;;;;;12.10;76.98;97450.22;7362715;19;20007;-60
2022/12/30 08:02:29;;;;;;;0.03;0.03;;;;;;;12.08;76.68;97446.91;7365663;19;20022;-60
2022/12/30 08:04:55;;;;;;;0.10;0.10;;;;;;;12.08;76.69;97435.63;7365004;19;20007;-60
2022/12/30 08:07:20;;;;;;;0.10;0.10;;;;;;;12.05;76.75;97436.69;7366035;19;20006;-61
2022/12/30 08:09:49;;;;;;;0.00;0.00;;;;;;;12.02;76.85;97429.13;7365208;19;20048;-60
2022/12/30 08:12:14;;;;;;;0.00;0.00;;;;;;;12.04;76.88;97434.22;7364936;19;20018;-60
2022/12/30 08:14:39;;;;;;;0.08;0.08;;;;;;;12.06;77.12;97438.34;7361749;19;20589;-60
2022/12/30 08:17:05;;;;;;;0.10;0.10;;;;;;;12.07;76.96;97423.50;7364296;19;20014;-61
2022/12/30 08:19:31;;;;;;;0.00;0.00;;;;;;;12.08;77.42;97415.53;7361751;19;20021;-60
2022/12/30 08:21:56;;;;;;;0.10;0.10;;;;;;;12.00;77.38;97412.69;7364983;19;20032;-61
2022/12/30 08:24:22;;;;;;;0.10;0.10;;;;;;;12.12;77.34;97432.66;7361688;19;20029;-60
2022/12/30 08:26:47;;;;;;;0.10;0.10;;;;;;;12.14;77.48;97441.19;7366437;19;20045;-61
2022/12/30 08:29:12;;;;;;;0.10;0.10;;;;;;;12.17;77.36;97451.41;7363763;19;20014;-60
2022/12/30 08:31:38;;;;;;;0.10;0.10;;;;;;;12.21;77.27;97478.13;7364741;19;20804;-60
2022/12/30 08:34:04;;;;;;;0.00;0.00;;;;;;;12.23;77.19;97478.03;7362618;19;20022;-63
2022/12/30 08:36:30;;;;;;;0.00;0.00;;;;;;;12.10;76.87;97465.91;7363097;19;20010;-64
2022/12/30 08:39:03;;;;;;;0.10;0.10;;;;;;;12.09;76.59;97460.81;7363436;19;20073;-63
2022/12/30 08:41:40;;;;;;;0.10;0.10;;;;;;;12.09;76.70;97469.50;7364885;19;20015;-63
2022/12/30 08:44:06;;;;;;;;;;;;;;;12.04;76.21;97476.88;7364309;19;20748;-62
2022/12/30 08:46:34;;;;;;;0.10;0.10;;;;;;;11.94;76.25;97481.19;7364803;19;19997;-61
2022/12/30 08:48:59;;;;;;;0.10;0.10;;;;;;;11.84;76.75;97486.31;7362964;19;20032;-61
2022/12/30 08:51:26;;;;;;;0.00;0.00;;;;;;;11.75;76.50;97494.00;7363565;19;26679;-61
2022/12/30 08:53:51;;;;;;;0.10;0.10;;;;;;;11.66;76.84;97487.75;7361287;19;20093;-61
2022/12/30 08:56:20;;;;;;;0.10;0.10;;;;;;;11.61;77.09;97495.94;7366842;19;22744;-61
2022/12/30 08:58:46;;;;;;;0.10;0.10;;;;;;;11.54;77.49;97510.41;7360037;19;20014;-62
2022/12/30 09:01:14;;;;;;;0.00;0.00;;;;;;;11.48;77.76;97500.44;7362009;19;20021;-62
2022/12/30 09:03:41;;;;;;;0.00;0.00;;;;;;;11.44;77.69;97485.97;7363232;19;20864;-63
2022/12/30 09:06:08;;;;;;;0.10;0.10;;;;;;;11.39;77.86;97482.88;7362564;19;20027;-63
2022/12/30 09:08:33;;;;;;;0.08;0.08;;;;;;;11.35;78.35;97486.66;7363085;19;20011;-63
2022/12/30 09:11:04;;;;;;;0.10;0.10;;;;;;;11.35;78.32;97484.06;7362215;19;20031;-62
2022/12/30 09:13:31;;;;;;;0.08;0.08;;;;;;;11.30;78.49;97475.75;7363594;19;20082;-62
2022/12/30 09:15:57;;;;;;;0.00;0.00;;;;;;;11.30;78.34;97465.28;7361276;19;20082;-62
2022/12/30 09:18:22;;;;;;;0.10;0.10;;;;;;;11.26;78.84;97469.94;7362906;19;20093;-61
2022/12/30 09:20:48;;;;;;;0.00;0.00;;;;;;;11.25;78.92;97483.09;7361051;19;20014;-62
2022/12/30 09:23:14;;;;;;;0.00;0.00;;;;;;;11.22;78.82;97478.97;7358110;19;20016;-61
2022/12/30 09:25:39;;;;;;;0.08;0.08;;;;;;;11.21;78.93;97485.13;7359980;19;20007;-62
2022/12/30 09:28:04;;;;;;;0.10;0.10;;;;;;;11.21;78.87;97492.13;7349094;19;20487;-61
2022/12/30 09:30:30;;;;;;;0.00;0.00;;;;;;;11.16;78.96;97487.25;7358004;19;20003;-60
2022/12/30 09:32:55;;;;;;;0.10;0.10;;;;;;;11.17;78.94;97500.19;7355701;19;20010;-62
2022/12/30 09:35:21;;;;;;;0.00;0.00;;;;;;;11.16;78.64;97498.53;7357673;19;20114;-61
2022/12/30 09:37:46;;;;;;;0.00;0.00;;;;;;;11.12;79.06;97498.88;7357968;19;20010;-62
2022/12/30 09:40:19;;;;;;;0.10;0.10;;;;;;;11.14;78.65;97503.03;7362605;19;20003;-61
2022/12/30 09:45:42;;;;;;;0.00;0.00;;;;;;;11.13;78.70;97530.09;7362689;19;20023;-62
2022/12/30 09:48:12;;;;;;;;;;;;;;;11.12;78.67;97536.28;7361187;19;20014;-62
2022/12/30 09:50:53;;;;;;;0.10;0.10;;;;;;;11.11;78.61;97525.97;7359583;19;20446;-62
2022/12/30 09:53:48;;;;;;;0.10;0.10;;;;;;;11.10;78.09;97538.19;7362726;19;20013;-62
2022/12/30 09:56:19;;;;;;;0.10;0.10;;;;;;;10.85;78.26;97502.63;7259519;19;2004455;-62
2022/12/30 09:58:45;;;;;;;0.10;0.10;;;;;;;10.98;78.33;97526.03;7360961;19;20018;-63
2022/12/30 10:01:19;;;;;;;0.05;0.05;;;;;;;10.94;78.08;97521.97;7360410;19;20014;-62
2022/12/30 10:03:45;;;;;;;0.03;0.03;;;;;;;10.87;78.45;97520.78;7360594;19;20021;-62
2022/12/30 10:06:36;;;;;;;0.03;0.03;;;;;;;10.83;78.21;97525.41;7359993;19;20002;-62
2022/12/30 10:09:43;;;;;;;0.00;0.00;;;;;;;10.77;78.82;97519.81;7248741;19;2004717;-62
2022/12/30 10:12:22;;;;;;;0.10;0.10;;;;;;;10.75;78.88;97521.72;7256182;19;2004830;-62
2022/12/30 10:15:14;;;;;;;0.10;0.10;;;;;;;10.74;79.16;97517.41;7361475;19;20010;-62
2022/12/30 10:17:40;;;;;;;0.00;0.00;;;;;;;10.72;78.89;97529.75;7258711;19;2004679;-62
2022/12/30 10:20:41;;;;;;;0.10;0.10;;;;;;;10.75;78.88;97539.97;7357837;19;20011;-62
2022/12/30 10:23:25;;;;;;;0.10;0.10;;;;;;;10.77;78.98;97545.91;7260189;19;2004583;-62
2022/12/30 10:26:15;;;;;;;0.10;0.10;;;;;;;10.79;79.64;97538.78;7361658;19;20006;-62
2022/12/30 10:29:00;;;;;;;0.10;0.10;;;;;;;10.85;79.66;97559.25;7362395;19;20013;-62
2022/12/30 10:31:29;;;;;;;0.00;0.00;;;;;;;10.89;79.71;97540.59;7362726;19;20438;-62
2022/12/30 10:34:01;;;;;;;0.00;0.00;;;;;;;10.98;80.00;97539.09;7363819;19;20351;-62
2022/12/30 10:36:33;;;;;;;0.00;0.00;;;;;;;11.02;79.51;97556.19;7360158;19;20018;-62
2022/12/30 10:39:11;;;;;;;0.08;0.08;;;;;;;11.06;79.77;97536.75;7359543;19;20039;-62
2022/12/30 10:41:45;;;;;;;0.00;0.00;;;;;;;11.16;79.57;97540.31;7359771;19;20006;-62
2022/12/30 10:44:24;;;;;;;0.03;0.03;;;;;;;11.19;79.08;97541.84;7363010;19;20040;-62
2022/12/30 10:47:18;;;;;;;0.10;0.10;;;;;;;11.22;78.80;97561.69;7362637;19;20015;-62
2022/12/30 10:50:31;;;;;;;0.10;0.10;;;;;;;11.24;78.67;97572.84;7258188;19;2004387;-62
2022/12/30 10:52:57;;;;;;;0.10;0.10;;;;;;;11.21;78.66;97570.50;7257122;19;2004716;-62
2022/12/30 10:55:29;;;;;;;0.00;0.00;;;;;;;11.21;78.47;97576.53;7362666;19;20467;-62
2022/12/30 10:58:04;;;;;;;0.00;0.00;;;;;;;11.23;78.30;97579.03;7358792;19;20006;-62
2022/12/30 11:00:39;;;;;;;0.00;0.00;;;;;;;11.18;78.36;97580.22;7361706;19;20753;-62
2022/12/30 11:03:17;;;;;;;0.08;0.08;;;;;;;11.23;78.63;97579.03;7362605;19;20788;-62
2022/12/30 11:05:43;;;;;;;0.10;0.10;;;;;;;11.24;78.27;97575.47;7356479;19;20010;-62
2022/12/30 11:08:29;;;;;;;0.00;0.00;;;;;;;11.30;78.19;97569.78;7360010;19;20700;-62
2022/12/30 11:11:04;;;;;;;0.00;0.00;;;;;;;11.30;77.91;97577.59;7259283;19;2004313;-62
2022/12/30 11:16:21;;;;;;;0.00;0.00;;;;;;;11.33;78.45;97586.06;7360457;19;20023;-61
2022/12/30 11:18:47;;;;;;;0.00;0.00;;;;;;;11.36;77.98;97595.47;7360538;19;20003;-62
2022/12/30 11:21:12;;;;;;;0.05;0.05;;;;;;;11.39;78.24;97601.25;7359684;19;20031;-62
2022/12/30 11:23:40;;;;;;;0.00;0.00;;;;;;;11.48;78.62;97606.75;7361507;19;20006;-62
2022/12/30 11:26:08;;;;;;;0.03;0.03;;;;;;;11.54;78.00;97620.19;7360014;19;20007;-62
2022/12/30 11:28:49;;;;;;;0.10;0.10;;;;;;;11.65;77.81;97601.06;7358653;19;20010;-62
2022/12/30 11:31:16;;;;;;;0.10;0.10;;;;;;;11.72;77.81;97611.91;7363785;19;20002;-62
2022/12/30 11:33:51;;;;;;;;;;;;;;;11.82;78.33;97605.03;7368809;19;20042;-62
2022/12/30 11:36:28;;;;;;;0.10;0.10;;;;;;;11.88;77.69;97601.94;7366446;19;19998;-62
2022/12/30 11:38:55;;;;;;;0.00;0.00;;;;;;;11.95;76.98;97590.06;7367386;19;20009;-62
2022/12/30 11:41:27;;;;;;;0.10;0.10;;;;;;;12.02;77.30;97599.09;7365786;19;20076;-62
2022/12/30 11:43:58;;;;;;;0.10;0.10;;;;;;;12.18;76.70;97601.34;7368484;19;20023;-62
2022/12/30 11:46:32;;;;;;;0.10;0.10;;;;;;;12.22;76.42;97615.03;7367031;19;20021;-62
2022/12/30 11:49:22;;;;;;;0.10;0.10;;;;;;;12.27;76.30;97602.41;7365950;19;20019;-62
2022/12/30 11:51:51;;;;;;;0.10;0.10;;;;;;;12.40;76.36;97595.22;7363863;19;20490;-62
2022/12/30 11:54:22;;;;;;;0.10;0.10;;;;;;;12.47;76.45;97601.66;7367686;19;20027;-62
2022/12/30 11:56:57;;;;;;;0.00;0.00;;;;;;;12.62;76.19;97608.28;7367962;19;20636;-62
2022/12/30 11:59:47;;;;;;;0.00;0.00;;;;;;;12.80;75.63;97600.72;7364912;19;20007;-62
2022/12/30 12:02:37;;;;;;;0.10;0.10;;;;;;;12.92;75.43;97609.34;7361742;19;20873;-62
2022/12/30 12:05:22;;;;;;;0.05;0.05;;;;;;;13.04;74.30;97590.03;7363646;19;20070;-62
2022/12/30 12:07:50;;;;;;;0.10;0.10;;;;;;;13.08;73.62;97609.78;7365576;19;20009;-62
2022/12/30 12:10:33;;;;;;;0.08;0.08;;;;;;;13.12;73.43;97615.56;7367253;19;20769;-62
2022/12/30 12:13:09;;;;;;;0.03;0.03;;;;;;;13.14;72.87;97630.22;7366720;19;20673;-62
2022/12/30 12:15:54;;;;;;;0.00;0.00;;;;;;;13.13;72.68;97625.13;7367460;19;20017;-61
2022/12/30 12:18:37;;;;;;;0.10;0.10;;;;;;;13.10;72.31;97630.59;7365772;19;19998;-62
2022/12/30 12:21:27;;;;;;;0.10;0.10;;;;;;;12.98;72.29;97628.03;7367221;19;20324;-62
2022/12/30 12:24:16;;;;;;;0.10;0.10;;;;;;;12.91;71.48;97628.63;7362539;19;20005;-62
2022/12/30 12:26:54;;;;;;;0.10;0.10;;;;;;;12.78;71.64;97648.94;7359655;19;20586;-62
2022/12/30 12:29:19;;;;;;;;;;;;;;;12.71;71.72;97633.69;7366202;19;20039;-63
2022/12/30 12:32:00;;;;;;;0.00;0.00;;;;;;;12.58;71.46;97633.03;7366879;19;19922;-62
2022/12/30 12:34:28;;;;;;;0.00;0.00;;;;;;;12.45;71.57;97633.16;7364458;19;20014;-62
2022/12/30 12:36:56;;;;;;;0.10;0.10;;;;;;;12.36;71.89;97643.53;7365159;19;20044;-62
2022/12/30 12:39:33;;;;;;;0.00;0.00;;;;;;;12.23;72.17;97635.00;7364905;19;20022;-62
2022/12/30 12:42:25;;;;;;;0.00;0.00;;;;;;;12.12;72.63;97636.66;7365166;19;20015;-62